createdAt,value
2018-08-18T00:02:27.448Z,22.10
2018-08-18T00:05:02.535Z,22.10
2018-08-18T00:12:47.876Z,22.10
2018-08-18T00:17:57.637Z,22.10
2018-08-18T00:20:32.671Z,22.00
2018-08-18T00:23:07.778Z,22.00
2018-08-18T00:28:21.539Z,22.00
2018-08-18T00:36:06.355Z,22.00
2018-08-18T00:43:50.936Z,22.00
2018-08-18T00:46:26.710Z,22.00
2018-08-18T00:49:01.861Z,21.90
2018-08-18T00:51:37.863Z,22.00
2018-08-18T00:54:12.983Z,22.00
2018-08-18T00:59:34.177Z,21.90
2018-08-18T01:07:26.380Z,21.90
2018-08-18T01:10:02.040Z,21.90
2018-08-18T01:15:16.200Z,21.90
2018-08-18T01:17:51.382Z,21.90
2018-08-18T01:20:26.471Z,21.90
2018-08-18T01:23:01.865Z,21.90
2018-08-18T01:28:11.734Z,21.80
2018-08-18T01:30:51.539Z,21.80
2018-08-18T01:33:26.677Z,21.80
2018-08-18T01:36:01.853Z,21.80
2018-08-18T01:38:37.744Z,21.80
2018-08-18T01:41:20.121Z,21.80
2018-08-18T01:44:10.094Z,21.80
2018-08-18T01:52:12.568Z,21.80
2018-08-18T01:54:47.684Z,21.80
2018-08-18T01:59:58.104Z,21.80
2018-08-18T02:02:33.256Z,21.70
2018-08-18T02:07:50.976Z,21.80
2018-08-18T02:10:26.128Z,21.80
2018-08-18T02:18:12.768Z,21.70
2018-08-18T02:20:47.850Z,21.70
2018-08-18T02:23:23.045Z,21.70
2018-08-18T02:28:33.056Z,21.70
2018-08-18T02:31:08.152Z,21.60
2018-08-18T02:33:43.242Z,21.70
2018-08-18T02:36:18.319Z,21.70
2018-08-18T02:41:33.229Z,21.70
2018-08-18T02:44:08.400Z,21.60
2018-08-18T02:46:43.510Z,21.60
2018-08-18T02:49:18.573Z,21.60
2018-08-18T02:54:32.716Z,21.60
2018-08-18T03:02:17.435Z,21.60
2018-08-18T03:10:13.113Z,21.50
2018-08-18T03:16:01.654Z,21.50
2018-08-18T03:18:52.262Z,21.50
2018-08-18T03:21:32.850Z,21.50
2018-08-18T03:24:14.787Z,21.50
2018-08-18T03:26:52.100Z,21.50
2018-08-18T03:29:28.400Z,21.50
2018-08-18T03:32:03.744Z,21.50
2018-08-18T03:37:25.994Z,21.50
2018-08-18T03:45:16.298Z,21.40
2018-08-18T03:47:51.467Z,21.40
2018-08-18T03:50:41.031Z,21.40
2018-08-18T03:53:18.123Z,21.40
2018-08-18T03:58:28.030Z,21.40
2018-08-18T04:01:03.199Z,21.40
2018-08-18T04:08:48.246Z,21.40
2018-08-18T04:13:58.058Z,21.40
2018-08-18T04:21:42.695Z,21.30
2018-08-18T04:24:17.843Z,21.30
2018-08-18T04:29:27.728Z,21.30
2018-08-18T04:32:02.859Z,21.30
2018-08-18T04:37:12.789Z,21.30
2018-08-18T04:39:48.027Z,21.30
2018-08-18T04:47:32.864Z,21.30
2018-08-18T04:52:42.847Z,21.30
2018-08-18T04:55:18.085Z,21.30
2018-08-18T05:00:27.946Z,21.30
2018-08-18T05:03:03.086Z,21.60
2018-08-18T05:05:38.206Z,21.30
2018-08-18T05:10:47.833Z,21.30
2018-08-18T05:26:16.849Z,21.30
2018-08-18T05:34:01.438Z,21.40
2018-08-18T05:39:00.216Z,21.40
2018-08-18T05:43:58.849Z,21.50
2018-08-18T06:04:18.510Z,21.80
2018-08-18T06:09:20.235Z,21.90
2018-08-18T06:16:48.631Z,22.10
2018-08-18T06:19:18.202Z,22.10
2018-08-18T06:21:47.741Z,22.20
2018-08-18T06:26:46.906Z,22.30
2018-08-18T06:29:16.750Z,22.40
2018-08-18T06:31:59.339Z,22.50
2018-08-18T06:39:46.637Z,22.70
2018-08-18T06:47:21.055Z,22.90
2018-08-18T06:52:20.478Z,23.00
2018-08-18T06:54:51.738Z,23.10
2018-08-18T06:59:59.716Z,23.20
2018-08-18T07:10:14.879Z,23.40
2018-08-18T07:25:17.305Z,22.50
2018-08-18T07:37:43.420Z,22.30
2018-08-18T07:47:41.737Z,22.20
2018-08-18T07:55:12.073Z,22.40
2018-08-18T07:57:46.424Z,22.50
2018-08-18T08:00:15.964Z,22.60
2018-08-18T08:05:14.596Z,22.80
2018-08-18T08:12:42.910Z,22.90
2018-08-18T08:15:13.865Z,23.20
2018-08-18T08:17:43.982Z,23.40
2018-08-18T08:22:44.126Z,23.70
2018-08-18T08:25:13.698Z,23.80
2018-08-18T08:27:46.062Z,23.90
2018-08-18T08:32:45.669Z,23.90
2018-08-18T08:35:15.271Z,24.00
2018-08-18T08:37:45.437Z,24.00
2018-08-18T08:45:17.005Z,24.00
2018-08-18T08:50:18.687Z,24.00
2018-08-18T08:52:49.567Z,24.10
2018-08-18T08:57:49.436Z,24.00
2018-08-18T09:00:18.997Z,24.00
2018-08-18T09:02:48.544Z,24.00
2018-08-18T09:07:47.380Z,24.10
2018-08-18T09:10:17.420Z,24.10
2018-08-18T09:15:17.558Z,24.30
2018-08-18T09:20:18.332Z,24.30
2018-08-18T09:25:20.062Z,24.40
2018-08-18T09:27:54.292Z,24.30
2018-08-18T09:32:54.258Z,24.30
2018-08-18T09:37:59.987Z,24.50
2018-08-18T09:45:29.977Z,24.50
2018-08-18T09:52:57.679Z,24.60
2018-08-18T09:57:56.394Z,24.60
2018-08-18T10:00:31.407Z,24.70
2018-08-18T10:05:30.083Z,24.70
2018-08-18T10:07:59.652Z,24.80
2018-08-18T10:10:29.352Z,24.80
2018-08-18T10:12:59.021Z,24.80
2018-08-18T10:17:57.743Z,24.90
2018-08-18T10:20:27.297Z,24.80
2018-08-18T10:25:25.932Z,24.90
2018-08-18T10:30:24.619Z,24.90
2018-08-18T10:38:01.956Z,24.90
2018-08-18T10:45:29.738Z,24.90
2018-08-18T10:52:44.110Z,24.90
2018-08-18T11:00:21.362Z,24.90
2018-08-18T11:02:52.496Z,24.90
2018-08-18T11:05:22.735Z,24.90
2018-08-18T11:08:12.778Z,24.90
2018-08-18T11:13:11.501Z,24.90
2018-08-18T11:15:41.684Z,24.90
2018-08-18T11:18:11.919Z,24.90
2018-08-18T11:20:41.531Z,24.90
2018-08-18T11:25:46.935Z,24.90
2018-08-18T11:30:46.499Z,24.70
2018-08-18T11:33:32.846Z,24.70
2018-08-18T11:36:03.429Z,24.70
2018-08-18T11:38:33.355Z,24.70
2018-08-18T11:41:02.894Z,24.60
2018-08-18T11:46:17.439Z,24.60
2018-08-18T11:48:47.000Z,24.60
2018-08-18T11:51:16.602Z,24.60
2018-08-18T11:59:02.814Z,24.60
2018-08-18T12:14:00.418Z,24.60
2018-08-18T12:38:58.108Z,24.70
2018-08-18T12:49:05.633Z,24.70
2018-08-18T12:54:04.352Z,24.70
2018-08-18T12:56:33.892Z,24.70
2018-08-18T12:59:03.458Z,24.80
2018-08-18T13:04:15.681Z,24.70
2018-08-18T13:06:51.076Z,24.70
2018-08-18T13:16:52.514Z,24.70
2018-08-18T13:26:52.025Z,24.70
2018-08-18T13:49:26.415Z,24.60
2018-08-18T13:51:56.037Z,24.50
2018-08-18T13:54:25.546Z,24.50
2018-08-18T14:04:32.579Z,24.40
2018-08-18T14:12:06.051Z,24.50
2018-08-18T14:24:36.598Z,24.30
2018-08-18T14:44:44.517Z,24.60
2018-08-18T14:49:43.141Z,24.60
2018-08-18T15:02:09.853Z,24.70
2018-08-18T15:04:39.437Z,24.70
2018-08-18T15:09:43.036Z,24.70
2018-08-18T15:12:12.971Z,24.60
2018-08-18T15:14:42.577Z,24.70
2018-08-18T15:17:12.407Z,24.70
2018-08-18T15:19:42.227Z,24.70
2018-08-18T15:24:42.056Z,24.70
2018-08-18T15:29:40.704Z,24.70
2018-08-18T15:32:10.255Z,24.80
2018-08-18T15:34:39.813Z,24.70
2018-08-18T15:37:09.356Z,24.70
2018-08-18T15:39:38.925Z,24.70
2018-08-18T15:42:08.468Z,24.70
2018-08-18T15:44:51.004Z,24.70
2018-08-18T15:47:20.579Z,24.70
2018-08-18T15:52:20.819Z,24.90
2018-08-18T15:59:48.766Z,25.20
2018-08-18T16:19:42.200Z,25.20
2018-08-18T16:22:11.738Z,25.20
2018-08-18T16:27:13.050Z,25.20
2018-08-18T16:47:13.784Z,24.70
2018-08-18T16:57:10.735Z,24.30
2018-08-18T16:59:40.282Z,24.20
2018-08-18T17:02:24.293Z,24.20
2018-08-18T17:22:25.960Z,23.20
2018-08-18T17:24:56.284Z,23.20
2018-08-18T17:27:28.341Z,23.10
2018-08-18T17:42:28.462Z,23.10
2018-08-18T17:44:58.413Z,23.40
2018-08-18T17:47:28.308Z,23.50
2018-08-18T17:49:58.517Z,23.80
2018-08-18T17:52:28.411Z,23.90
2018-08-18T18:02:50.124Z,24.10
2018-08-18T18:05:22.246Z,24.20
2018-08-18T18:10:26.984Z,24.20
2018-08-18T18:12:56.535Z,24.20
2018-08-18T18:15:36.383Z,24.20
2018-08-18T18:25:36.733Z,24.10
2018-08-18T18:35:33.622Z,24.10
2018-08-18T19:05:37.572Z,24.00
2018-08-18T19:08:10.040Z,24.00
2018-08-18T19:10:40.025Z,24.00
2018-08-18T19:18:09.799Z,24.00
2018-08-18T19:23:16.640Z,24.00
2018-08-18T19:25:47.782Z,24.00
2018-08-18T19:38:17.661Z,23.90
2018-08-18T19:40:48.559Z,23.90
2018-08-18T19:48:25.672Z,23.90
2018-08-18T19:56:08.264Z,23.90
2018-08-18T20:03:36.732Z,23.90
2018-08-18T20:11:11.792Z,23.90
2018-08-18T20:13:41.608Z,23.90
2018-08-18T20:16:11.153Z,23.90
2018-08-18T20:21:09.989Z,23.80
2018-08-18T20:23:39.536Z,23.90
2018-08-18T20:28:38.183Z,23.80
2018-08-18T20:31:07.745Z,23.80
2018-08-18T20:36:06.456Z,23.70
2018-08-18T20:41:09.481Z,23.80
2018-08-18T20:43:39.719Z,23.70
2018-08-18T20:46:09.290Z,23.70
2018-08-18T20:48:39.209Z,23.70
2018-08-18T21:01:05.695Z,23.70
2018-08-18T21:03:48.281Z,23.70
2018-08-18T21:06:18.785Z,23.70
2018-08-18T21:08:48.695Z,23.60
2018-08-18T21:21:29.497Z,23.60
2018-08-18T21:34:04.135Z,23.60
2018-08-18T21:41:37.877Z,23.60
2018-08-18T21:44:09.625Z,23.60
2018-08-18T21:56:37.682Z,23.50
2018-08-18T22:04:07.710Z,23.50
2018-08-18T22:16:49.447Z,23.50
2018-08-18T22:26:47.180Z,23.40
2018-08-18T22:31:45.856Z,23.40
2018-08-18T22:41:43.520Z,23.30
2018-08-18T22:44:13.076Z,23.40
2018-08-18T23:07:08.996Z,23.30
2018-08-18T23:14:40.681Z,23.30
2018-08-18T23:17:11.211Z,23.30
2018-08-18T23:19:40.756Z,23.30
2018-08-18T23:29:43.172Z,23.20
2018-08-18T23:34:54.124Z,23.20
2018-08-18T23:37:23.731Z,23.20
2018-08-18T23:42:25.403Z,23.20
2018-08-18T23:49:53.239Z,23.10
2018-08-18T23:59:50.783Z,23.10
